Time;durP1;ratioP1;P1;durP2;ratioP2;P2;SDS_P1;SDS_P2;PMS_P1;PMS_P2;Temp;Humidity;BMP_temperature;BMP_pressure;BME280_temperature;BME280_humidity;BME280_pressure;Samples;Min_cycle;Max_cycle;Signal;HPM_P1;HPM_P2
2023/07/16 00:01:06;;;;;;;;;;;;;;;23.55;62.26;100303.84;4966714;28;4229;-70
2023/07/16 00:03:32;;;;;;;;;;;;;;;23.55;62.58;100306.00;4969451;28;4117;-70
2023/07/16 00:05:59;;;;;;;;;;;;;;;23.55;62.57;100294.44;4971467;28;4234;-70
2023/07/16 00:08:25;;;;;;;;;;;;;;;23.53;62.76;100271.25;4972455;28;4087;-71
2023/07/16 00:10:51;;;;;;;;;;;;;;;23.53;62.79;100262.59;4959077;28;3994;-70
2023/07/16 00:13:18;;;;;;;;;;;;;;;23.54;62.93;100266.94;4964285;28;4144;-70
2023/07/16 00:15:45;;;;;;;;;;;;;;;23.56;62.96;100282.16;4971285;28;4069;-70
2023/07/16 00:18:11;;;;;;;;;;;;;;;23.56;63.24;100290.84;4970471;28;4145;-71
2023/07/16 00:20:38;;;;;;;;;;;;;;;23.57;63.17;100295.22;4958278;28;5243;-71
2023/07/16 00:23:04;;;;;;;;;;;;;;;23.56;62.99;100304.56;4969877;28;3984;-70
2023/07/16 00:25:31;;;;;;;;;;;;;;;23.56;63.16;100307.44;4971208;28;4128;-71
2023/07/16 00:27:57;;;;;;;;;;;;;;;23.56;63.12;100304.56;4963980;28;4051;-71
2023/07/16 00:30:23;;;;;;;;;;;;;;;23.56;62.95;100319.00;4959708;28;4305;-70
2023/07/16 00:32:50;;;;;;;;;;;;;;;23.57;62.86;100323.34;4956007;28;4089;-71
2023/07/16 00:35:17;;;;;;;;;;;;;;;23.57;62.84;100329.13;4966170;28;6387;-70
2023/07/16 00:37:44;;;;;;;;;;;;;;;23.57;62.72;100340.69;4966955;28;4518;-70
2023/07/16 00:40:11;;;;;;;;;;;;;;;23.59;62.37;100340.75;4959607;28;4323;-71
2023/07/16 00:42:37;;;;;;;;;;;;;;;23.59;61.81;100355.19;4963383;28;4265;-70
2023/07/16 00:45:04;;;;;;;;;;;;;;;23.60;62.04;100368.25;4960490;28;4144;-71
2023/07/16 00:47:30;;;;;;;;;;;;;;;23.61;61.77;100387.03;4979711;28;4448;-70
2023/07/16 00:49:57;;;;;;;;;;;;;;;23.61;61.86;100399.34;4963507;28;4032;-70
2023/07/16 00:52:24;;;;;;;;;;;;;;;23.61;61.62;100415.94;4966970;28;4166;-70
2023/07/16 00:54:50;;;;;;;;;;;;;;;23.60;61.45;100426.06;4972236;28;4045;-70
2023/07/16 00:57:17;;;;;;;;;;;;;;;23.61;61.34;100441.97;4966460;28;4190;-70
2023/07/16 00:59:43;;;;;;;;;;;;;;;23.61;61.39;100457.16;4959912;28;4170;-70
2023/07/16 01:02:09;;;;;;;;;;;;;;;23.61;61.22;100470.88;4967391;28;4010;-71
2023/07/16 01:04:36;;;;;;;;;;;;;;;23.62;61.18;100486.81;4986836;28;4047;-66
2023/07/16 01:07:04;;;;;;;;;;;;;;;23.61;61.02;100497.59;4983763;28;4437;-66
2023/07/16 01:09:30;;;;;;;;;;;;;;;23.62;61.09;100510.66;4970292;28;5282;-66
2023/07/16 01:11:57;;;;;;;;;;;;;;;23.63;61.15;100505.59;4961032;28;4155;-65
2023/07/16 01:14:23;;;;;;;;;;;;;;;23.62;61.47;100515.72;4969244;28;4203;-65
2023/07/16 01:16:51;;;;;;;;;;;;;;;23.61;61.92;100520.72;4982861;28;4108;-65
2023/07/16 01:19:17;;;;;;;;;;;;;;;23.61;62.65;100537.34;4966288;28;4206;-65
2023/07/16 01:22:03;;;;;;;;;;;;;;;23.59;63.20;100548.84;4962095;28;4065;-65
2023/07/16 01:24:38;;;;;;;;;;;;;;;23.58;63.57;100567.63;4962980;28;5083;-65
2023/07/16 01:27:29;;;;;;;;;;;;;;;23.58;63.30;100577.00;4945603;28;4035;-66
2023/07/16 01:30:02;;;;;;;;;;;;;;;23.57;63.12;100583.47;4957125;28;4220;-65
2023/07/16 01:32:30;;;;;;;;;;;;;;;23.57;62.94;100590.00;4955034;28;4232;-65
2023/07/16 01:35:00;;;;;;;;;;;;;;;23.55;64.19;100597.88;4963594;28;4024;-66
2023/07/16 01:37:26;;;;;;;;;;;;;;;23.55;63.50;100592.84;4969733;28;4080;-66
2023/07/16 01:39:53;;;;;;;;;;;;;;;23.57;63.54;100592.13;4968542;28;4416;-66
2023/07/16 01:42:20;;;;;;;;;;;;;;;23.56;63.46;100593.56;4957992;28;4094;-65
2023/07/16 01:44:46;;;;;;;;;;;;;;;23.56;63.20;100582.00;4970814;28;4170;-66
2023/07/16 01:47:28;;;;;;;;;;;;;;;23.57;63.39;100600.81;4984056;28;4016;-65
2023/07/16 01:49:54;;;;;;;;;;;;;;;23.57;62.93;100609.47;4962603;28;4229;-65
2023/07/16 01:52:21;;;;;;;;;;;;;;;23.57;63.03;100613.13;4968638;28;4375;-65
2023/07/16 01:54:48;;;;;;;;;;;;;;;23.58;63.09;100619.63;4968117;28;4067;-65
2023/07/16 01:57:14;;;;;;;;;;;;;;;23.57;63.25;100612.38;4967177;28;4461;-66
2023/07/16 01:59:40;;;;;;;;;;;;;;;23.58;62.91;100613.84;4979927;28;5072;-65
2023/07/16 02:02:07;;;;;;;;;;;;;;;23.57;63.01;100612.38;4960252;28;3950;-65
2023/07/16 02:04:33;;;;;;;;;;;;;;;23.57;62.90;100615.25;4964324;28;4161;-65
2023/07/16 02:07:00;;;;;;;;;;;;;;;23.56;62.84;100622.47;4967957;28;3985;-65
2023/07/16 02:09:26;;;;;;;;;;;;;;;23.58;62.83;100628.31;4961250;28;4335;-65
2023/07/16 02:11:53;;;;;;;;;;;;;;;23.58;62.89;100625.41;4978253;28;4078;-65
2023/07/16 02:14:19;;;;;;;;;;;;;;;23.53;64.11;100624.56;4970417;28;4854;-65
2023/07/16 02:16:46;;;;;;;;;;;;;;;23.53;64.17;100618.06;4964428;28;4185;-65
2023/07/16 02:19:12;;;;;;;;;;;;;;;23.53;64.29;100600.72;4965220;28;4256;-65
2023/07/16 02:21:38;;;;;;;;;;;;;;;23.52;65.26;100599.22;4969903;28;4200;-65
2023/07/16 02:24:05;;;;;;;;;;;;;;;23.48;65.25;100616.44;4968309;28;4223;-65
2023/07/16 02:26:31;;;;;;;;;;;;;;;23.49;66.01;100594.81;4955291;28;4162;-65
2023/07/16 02:28:59;;;;;;;;;;;;;;;23.48;66.58;100567.31;4959647;28;3997;-65
2023/07/16 02:31:25;;;;;;;;;;;;;;;23.48;66.52;100570.94;4959869;28;5151;-65
2023/07/16 02:33:52;;;;;;;;;;;;;;;23.50;66.34;100573.16;4972732;28;4197;-65
2023/07/16 02:36:18;;;;;;;;;;;;;;;23.55;66.39;100563.19;4964752;28;4160;-65
2023/07/16 02:38:45;;;;;;;;;;;;;;;23.55;66.38;100563.94;4959317;28;4087;-65
2023/07/16 02:41:11;;;;;;;;;;;;;;;23.56;66.63;100562.50;4968315;28;4156;-65
2023/07/16 02:43:37;;;;;;;;;;;;;;;23.60;66.93;100570.56;4966405;28;4166;-65
2023/07/16 02:46:04;;;;;;;;;;;;;;;23.58;66.65;100568.34;4969562;28;4159;-66
2023/07/16 02:48:31;;;;;;;;;;;;;;;23.56;66.47;100564.66;4963939;28;4156;-65
2023/07/16 02:50:57;;;;;;;;;;;;;;;23.60;67.43;100559.00;4962470;28;4271;-65
2023/07/16 02:53:24;;;;;;;;;;;;;;;23.62;67.70;100567.72;4967984;28;4189;-66
2023/07/16 02:55:50;;;;;;;;;;;;;;;23.61;67.95;100583.59;4955024;28;4356;-65
2023/07/16 02:58:16;;;;;;;;;;;;;;;23.63;67.81;100583.66;4960089;28;4454;-65
2023/07/16 03:00:43;;;;;;;;;;;;;;;23.59;68.12;100586.41;4966589;28;4136;-65
2023/07/16 03:03:09;;;;;;;;;;;;;;;23.64;68.43;100588.03;4980507;28;4019;-65
2023/07/16 03:05:36;;;;;;;;;;;;;;;23.63;68.31;100601.72;4987169;28;4183;-65
2023/07/16 03:08:02;;;;;;;;;;;;;;;23.57;68.27;100560.34;4969308;28;4212;-65
2023/07/16 03:10:29;;;;;;;;;;;;;;;23.58;68.48;100551.00;4959907;28;4137;-66
2023/07/16 03:12:56;;;;;;;;;;;;;;;23.56;68.60;100542.28;4967185;28;4146;-65
2023/07/16 03:15:22;;;;;;;;;;;;;;;23.54;68.75;100550.16;4969612;28;4219;-65
2023/07/16 03:17:48;;;;;;;;;;;;;;;23.55;69.06;100540.09;4966055;28;4046;-65
2023/07/16 03:20:15;;;;;;;;;;;;;;;23.54;68.99;100535.69;4974206;28;4166;-65
2023/07/16 03:22:42;;;;;;;;;;;;;;;23.48;69.09;100576.72;4963567;28;4158;-65
2023/07/16 03:25:08;;;;;;;;;;;;;;;23.48;69.07;100575.97;4956922;28;4315;-65
2023/07/16 03:27:35;;;;;;;;;;;;;;;23.48;68.81;100575.97;4972578;28;4035;-65
2023/07/16 03:30:02;;;;;;;;;;;;;;;23.50;68.57;100578.94;4956640;28;4269;-65
2023/07/16 03:32:28;;;;;;;;;;;;;;;23.51;68.40;100551.53;4973952;28;4063;-66
2023/07/16 03:35:11;;;;;;;;;;;;;;;23.47;69.51;100563.69;4966323;28;5215;-65
2023/07/16 03:37:37;;;;;;;;;;;;;;;23.46;69.22;100582.44;4993327;28;4160;-65
2023/07/16 03:40:15;;;;;;;;;;;;;;;23.49;68.80;100595.53;4957855;28;4080;-65
2023/07/16 03:42:43;;;;;;;;;;;;;;;23.52;68.68;100587.66;4975432;28;4138;-65
2023/07/16 03:45:10;;;;;;;;;;;;;;;23.51;68.76;100591.97;4964702;28;4106;-65
2023/07/16 03:47:36;;;;;;;;;;;;;;;23.53;68.84;100594.94;4972796;28;4402;-66
2023/07/16 03:50:03;;;;;;;;;;;;;;;23.54;68.97;100605.78;4957487;28;4943;-65
2023/07/16 03:52:30;;;;;;;;;;;;;;;23.51;68.72;100597.75;4975193;28;4162;-65
2023/07/16 03:54:56;;;;;;;;;;;;;;;23.50;67.85;100607.81;4959497;28;4055;-65
2023/07/16 03:57:22;;;;;;;;;;;;;;;23.46;68.41;100613.50;4973708;28;4216;-65
2023/07/16 03:59:50;;;;;;;;;;;;;;;23.45;68.47;100594.69;4972587;28;4113;-65
2023/07/16 04:02:16;;;;;;;;;;;;;;;23.45;68.37;100586.00;4957161;28;4279;-65
2023/07/16 04:04:43;;;;;;;;;;;;;;;23.50;68.44;100578.94;4971797;28;4284;-65
2023/07/16 04:07:09;;;;;;;;;;;;;;;23.35;70.41;100572.00;4964655;28;3992;-63
2023/07/16 04:09:39;;;;;;;;;;;;;;;22.17;78.42;100567.53;4963142;28;4333;-63
2023/07/16 04:12:06;;;;;;;;;;;;;;;21.82;81.36;100568.47;4967589;28;4092;-63
2023/07/16 04:14:32;;;;;;;;;;;;;;;21.97;80.92;100572.59;4969878;28;4201;-63
2023/07/16 04:16:59;;;;;;;;;;;;;;;21.84;81.70;100577.19;4963031;28;4320;-63
2023/07/16 04:19:25;;;;;;;;;;;;;;;22.24;79.73;100590.81;4959515;28;4162;-63
2023/07/16 04:21:51;;;;;;;;;;;;;;;21.99;81.02;100592.84;4959489;28;4111;-63
2023/07/16 04:24:18;;;;;;;;;;;;;;;21.97;81.46;100592.78;4958367;28;3994;-64
2023/07/16 04:26:44;;;;;;;;;;;;;;;22.14;80.53;100591.94;4960067;28;4188;-63
2023/07/16 04:29:11;;;;;;;;;;;;;;;22.34;79.76;100599.84;4970819;28;4211;-63
2023/07/16 04:31:37;;;;;;;;;;;;;;;22.27;79.63;100609.69;4964022;28;4217;-63
2023/07/16 04:34:03;;;;;;;;;;;;;;;22.17;80.37;100602.13;4968029;28;4052;-63
2023/07/16 04:36:30;;;;;;;;;;;;;;;22.06;80.47;100597.44;4967977;28;4021;-63
2023/07/16 04:38:57;;;;;;;;;;;;;;;22.06;81.20;100611.06;4969815;28;5052;-63
2023/07/16 04:41:23;;;;;;;;;;;;;;;22.28;79.40;100611.91;4956545;28;4288;-64
2023/07/16 04:43:50;;;;;;;;;;;;;;;21.95;81.33;100630.91;4959247;28;4035;-63
2023/07/16 04:46:16;;;;;;;;;;;;;;;21.80;82.50;100631.06;4959462;28;4345;-63
2023/07/16 04:48:43;;;;;;;;;;;;;;;22.00;81.38;100633.94;4968908;28;4074;-63
2023/07/16 04:51:09;;;;;;;;;;;;;;;21.90;81.93;100640.09;4970444;28;4203;-63
2023/07/16 04:53:36;;;;;;;;;;;;;;;22.04;81.07;100645.63;4973715;28;4350;-63
2023/07/16 04:56:02;;;;;;;;;;;;;;;22.12;80.86;100648.78;4972861;28;4108;-63
2023/07/16 04:58:28;;;;;;;;;;;;;;;22.29;79.49;100661.69;4958453;28;4133;-63
2023/07/16 05:00:55;;;;;;;;;;;;;;;22.35;79.32;100677.03;4962229;28;4105;-63
2023/07/16 05:03:21;;;;;;;;;;;;;;;22.13;80.78;100659.66;4968201;28;4751;-64
2023/07/16 05:05:48;;;;;;;;;;;;;;;22.03;81.62;100662.16;4969110;28;4398;-63
2023/07/16 05:08:15;;;;;;;;;;;;;;;22.11;81.26;100676.91;4962186;28;4045;-63
2023/07/16 05:10:41;;;;;;;;;;;;;;;22.28;79.73;100674.63;4966375;28;4202;-64
2023/07/16 05:13:08;;;;;;;;;;;;;;;22.21;80.17;100667.88;4967791;28;3960;-63
2023/07/16 05:15:34;;;;;;;;;;;;;;;22.05;80.85;100676.66;4966751;28;4208;-64
2023/07/16 05:18:01;;;;;;;;;;;;;;;22.05;80.80;100668.00;4966350;28;4176;-63
2023/07/16 05:20:27;;;;;;;;;;;;;;;22.12;80.42;100680.50;4961594;28;4203;-64
2023/07/16 05:22:54;;;;;;;;;;;;;;;22.35;79.77;100682.06;4965820;28;4193;-63
2023/07/16 05:25:20;;;;;;;;;;;;;;;22.35;80.05;100677.03;4966312;28;4177;-64
2023/07/16 05:27:46;;;;;;;;;;;;;;;22.27;80.20;100678.91;4962371;28;4191;-64
2023/07/16 05:30:13;;;;;;;;;;;;;;;22.29;80.49;100685.50;4962178;28;4115;-63
2023/07/16 05:32:40;;;;;;;;;;;;;;;22.24;80.64;100686.00;4971728;28;4025;-64
2023/07/16 05:35:06;;;;;;;;;;;;;;;22.38;79.99;100689.41;4971190;28;4003;-63
2023/07/16 05:37:33;;;;;;;;;;;;;;;22.53;78.42;100696.41;4962039;28;4459;-63
2023/07/16 05:39:59;;;;;;;;;;;;;;;22.51;78.74;100699.97;4957561;28;4153;-63
2023/07/16 05:42:26;;;;;;;;;;;;;;;22.74;76.47;100700.72;4962726;28;4543;-63
2023/07/16 05:44:52;;;;;;;;;;;;;;;22.79;76.44;100703.09;4970004;28;4278;-63
2023/07/16 05:47:19;;;;;;;;;;;;;;;22.78;76.81;100698.00;4963990;28;4150;-64
2023/07/16 05:49:45;;;;;;;;;;;;;;;22.74;76.75;100701.47;4966608;28;4227;-62
2023/07/16 05:52:12;;;;;;;;;;;;;;;22.69;76.77;100696.22;4965876;28;4171;-62
2023/07/16 05:54:38;;;;;;;;;;;;;;;22.68;76.91;100709.19;4959534;28;4201;-63
2023/07/16 05:57:05;;;;;;;;;;;;;;;22.53;76.99;100705.81;4959118;28;4227;-63
2023/07/16 05:59:36;;;;;;;;;;;;;;;22.64;76.67;100695.34;4947885;28;5455;-63
2023/07/16 06:02:03;;;;;;;;;;;;;;;22.72;77.30;100703.53;4956837;28;4075;-63
2023/07/16 06:04:29;;;;;;;;;;;;;;;22.73;77.30;100705.78;4954698;28;4165;-63
2023/07/16 06:06:56;;;;;;;;;;;;;;;22.82;76.62;100694.50;4956567;28;4068;-63
2023/07/16 06:09:22;;;;;;;;;;;;;;;22.79;76.70;100699.44;4954445;28;4242;-63
2023/07/16 06:11:49;;;;;;;;;;;;;;;22.79;76.54;100699.44;4959005;28;4179;-63
2023/07/16 06:14:15;;;;;;;;;;;;;;;22.84;76.28;100703.97;4966529;28;4052;-63
2023/07/16 06:16:42;;;;;;;;;;;;;;;22.90;75.69;100698.38;4960621;28;4169;-63
2023/07/16 06:19:08;;;;;;;;;;;;;;;22.83;76.90;100713.28;4966458;28;4379;-63
2023/07/16 06:21:34;;;;;;;;;;;;;;;22.88;76.19;100712.75;4966523;28;4145;-63
2023/07/16 06:24:01;;;;;;;;;;;;;;;22.94;75.81;100704.31;4971579;28;4129;-63
2023/07/16 06:26:27;;;;;;;;;;;;;;;22.90;75.66;100709.94;4968621;28;4135;-63
2023/07/16 06:28:53;;;;;;;;;;;;;;;22.95;75.22;100713.69;4963260;28;4270;-63
2023/07/16 06:31:20;;;;;;;;;;;;;;;22.99;74.91;100726.16;4967768;28;4034;-63
2023/07/16 06:33:46;;;;;;;;;;;;;;;23.02;75.78;100718.31;4964272;28;4169;-63
2023/07/16 06:36:13;;;;;;;;;;;;;;;23.03;75.69;100721.94;4959646;28;4162;-63
2023/07/16 06:38:40;;;;;;;;;;;;;;;22.99;75.46;100720.38;4963281;28;4196;-63
2023/07/16 06:41:06;;;;;;;;;;;;;;;23.06;74.81;100724.22;4965622;28;4049;-63
2023/07/16 06:43:33;;;;;;;;;;;;;;;23.02;75.62;100720.44;4966530;28;4164;-63
2023/07/16 06:45:59;;;;;;;;;;;;;;;23.09;75.13;100733.66;4967217;28;3939;-63
2023/07/16 06:48:26;;;;;;;;;;;;;;;23.05;74.90;100736.44;4959323;28;4235;-63
2023/07/16 06:50:52;;;;;;;;;;;;;;;23.12;74.21;100732.34;4955877;28;4098;-63
2023/07/16 06:53:19;;;;;;;;;;;;;;;23.20;73.96;100738.38;4957347;28;4245;-64
2023/07/16 06:55:47;;;;;;;;;;;;;;;23.07;75.83;100737.25;4968895;28;4213;-63
2023/07/16 06:58:13;;;;;;;;;;;;;;;23.14;74.63;100732.41;4958877;28;4008;-63
2023/07/16 07:00:40;;;;;;;;;;;;;;;23.19;74.34;100731.13;4958656;28;4397;-63
2023/07/16 07:03:06;;;;;;;;;;;;;;;23.26;73.49;100741.47;4958886;28;4068;-63
2023/07/16 07:05:35;;;;;;;;;;;;;;;23.25;74.09;100742.91;4953608;28;4131;-79
2023/07/16 07:08:02;;;;;;;;;;;;;;;23.30;73.16;100741.59;4959480;28;4225;-70
2023/07/16 07:10:28;;;;;;;;;;;;;;;23.33;73.12;100746.03;4970769;28;4127;-63
2023/07/16 07:12:55;;;;;;;;;;;;;;;23.29;73.52;100756.72;4972410;28;4213;-63
2023/07/16 07:15:21;;;;;;;;;;;;;;;23.12;73.88;100761.22;4972491;28;4261;-63
2023/07/16 07:17:48;;;;;;;;;;;;;;;22.97;73.67;100752.03;4969718;28;3978;-63
2023/07/16 07:20:15;;;;;;;;;;;;;;;23.06;73.85;100761.75;4969735;28;4030;-63
2023/07/16 07:22:41;;;;;;;;;;;;;;;23.09;72.91;100756.78;4965293;28;4113;-63
2023/07/16 07:25:08;;;;;;;;;;;;;;;23.10;72.96;100764.78;4961403;28;4307;-63
2023/07/16 07:27:34;;;;;;;;;;;;;;;23.22;72.11;100764.44;4959788;28;4183;-63
2023/07/16 07:30:01;;;;;;;;;;;;;;;23.24;72.19;100778.97;4963918;28;4242;-63
2023/07/16 07:32:28;;;;;;;;;;;;;;;23.16;70.96;100778.69;4958664;28;4187;-63
2023/07/16 07:34:55;;;;;;;;;;;;;;;23.07;71.15;100797.16;4966974;28;4271;-63
2023/07/16 07:37:21;;;;;;;;;;;;;;;23.19;70.63;100794.69;4966821;28;4199;-63
2023/07/16 07:39:51;;;;;;;;;;;;;;;23.18;70.56;100787.41;4968750;28;4250;-63
2023/07/16 07:42:18;;;;;;;;;;;;;;;23.14;70.66;100793.06;4965960;28;4201;-63
2023/07/16 07:44:44;;;;;;;;;;;;;;;23.16;70.63;100796.03;4953090;28;4222;-63
2023/07/16 07:47:11;;;;;;;;;;;;;;;23.16;70.82;100801.81;4967135;28;4190;-63
2023/07/16 07:49:37;;;;;;;;;;;;;;;23.15;69.92;100808.97;4968521;28;4250;-63
2023/07/16 07:52:05;;;;;;;;;;;;;;;23.15;69.93;100806.81;4950383;28;4070;-63
2023/07/16 07:54:32;;;;;;;;;;;;;;;23.07;69.17;100802.94;4952392;28;4246;-63
2023/07/16 07:57:00;;;;;;;;;;;;;;;23.05;68.99;100797.81;4955864;28;4199;-63
2023/07/16 07:59:29;;;;;;;;;;;;;;;23.26;68.70;100801.41;4961404;28;4225;-63
2023/07/16 08:01:56;;;;;;;;;;;;;;;23.23;69.19;100799.84;4970911;28;4215;-63
2023/07/16 08:04:23;;;;;;;;;;;;;;;23.27;69.38;100803.59;4974040;28;4070;-63
2023/07/16 08:06:50;;;;;;;;;;;;;;;23.26;66.33;100813.69;4969667;28;5199;-63
2023/07/16 08:09:16;;;;;;;;;;;;;;;23.26;65.96;100822.38;4974097;28;4207;-63
2023/07/16 08:11:42;;;;;;;;;;;;;;;23.25;65.16;100802.81;4960335;28;4125;-63
2023/07/16 08:14:09;;;;;;;;;;;;;;;23.34;64.33;100811.09;4964221;28;4222;-63
2023/07/16 08:16:35;;;;;;;;;;;;;;;23.41;63.36;100809.16;4953663;28;4462;-63
2023/07/16 08:19:02;;;;;;;;;;;;;;;23.53;62.31;100820.34;4963664;28;4197;-63
2023/07/16 08:21:29;;;;;;;;;;;;;;;23.55;61.55;100820.44;4953235;28;4298;-64
2023/07/16 08:23:55;;;;;;;;;;;;;;;23.64;61.77;100833.72;4960014;28;4190;-63
2023/07/16 08:26:21;;;;;;;;;;;;;;;23.66;61.42;100827.25;4958805;28;4062;-63
2023/07/16 08:28:48;;;;;;;;;;;;;;;23.62;61.13;100834.41;4949029;28;4528;-64
2023/07/16 08:31:14;;;;;;;;;;;;;;;23.89;61.11;100817.94;4945840;28;4203;-64
2023/07/16 08:33:41;;;;;;;;;;;;;;;23.81;61.52;100827.06;4965131;28;4144;-70
2023/07/16 08:36:07;;;;;;;;;;;;;;;23.83;61.48;100830.03;4962928;28;4238;-66
2023/07/16 08:38:34;;;;;;;;;;;;;;;23.88;61.08;100841.72;4963400;28;3994;-64
2023/07/16 08:41:00;;;;;;;;;;;;;;;23.93;60.95;100838.28;4963528;28;4194;-63
2023/07/16 08:43:28;;;;;;;;;;;;;;;23.94;60.97;100836.88;4963276;28;4141;-65
2023/07/16 08:45:54;;;;;;;;;;;;;;;24.09;61.22;100832.25;4978729;28;4233;-64
2023/07/16 08:48:20;;;;;;;;;;;;;;;24.04;59.78;100836.44;4963592;28;4064;-65
2023/07/16 08:50:47;;;;;;;;;;;;;;;24.06;59.65;100836.50;4967105;28;4196;-63
2023/07/16 08:53:14;;;;;;;;;;;;;;;23.83;57.66;100832.91;4970162;28;4193;-63
2023/07/16 08:55:41;;;;;;;;;;;;;;;24.02;58.09;100845.06;4980985;28;4089;-62
2023/07/16 08:58:07;;;;;;;;;;;;;;;24.04;56.81;100836.44;4963283;28;4124;-62
2023/07/16 09:00:33;;;;;;;;;;;;;;;24.13;57.17;100846.13;4971230;28;4274;-63
2023/07/16 09:03:00;;;;;;;;;;;;;;;24.14;57.13;100842.53;4966116;28;4225;-64
2023/07/16 09:05:26;;;;;;;;;;;;;;;24.21;57.22;100844.22;4980309;28;4202;-64
2023/07/16 09:08:06;;;;;;;;;;;;;;;24.08;57.82;100848.16;4956381;28;4043;-64
2023/07/16 09:10:32;;;;;;;;;;;;;;;23.97;58.44;100860.81;4966401;28;4185;-67
2023/07/16 09:12:59;;;;;;;;;;;;;;;23.96;58.66;100853.53;4964201;28;4007;-68
2023/07/16 09:15:27;;;;;;;;;;;;;;;23.94;59.12;100856.38;4978692;28;4561;-69
2023/07/16 09:17:54;;;;;;;;;;;;;;;23.85;59.43;100858.28;4971141;28;4033;-69
2023/07/16 09:20:21;;;;;;;;;;;;;;;23.81;59.60;100855.97;4965998;28;4009;-68
2023/07/16 09:22:47;;;;;;;;;;;;;;;23.73;59.99;100858.59;4967425;28;4434;-69
2023/07/16 09:25:13;;;;;;;;;;;;;;;23.76;60.00;100865.94;4966494;28;4505;-68
2023/07/16 09:27:40;;;;;;;;;;;;;;;23.75;60.12;100858.66;4971468;28;4121;-68
2023/07/16 09:30:07;;;;;;;;;;;;;;;23.75;60.26;100852.16;4975815;28;4025;-69
2023/07/16 09:32:34;;;;;;;;;;;;;;;23.74;60.21;100857.22;4965754;28;4082;-69
2023/07/16 09:35:00;;;;;;;;;;;;;;;23.75;60.29;100852.88;4967328;28;4155;-68
2023/07/16 09:37:27;;;;;;;;;;;;;;;23.76;60.51;100853.66;4970785;28;4148;-69
2023/07/16 09:39:53;;;;;;;;;;;;;;;23.76;60.89;100860.16;4982742;28;3947;-68
2023/07/16 09:42:20;;;;;;;;;;;;;;;23.76;60.78;100854.38;4963543;28;4360;-68
2023/07/16 09:44:50;;;;;;;;;;;;;;;23.75;60.96;100852.88;4970822;28;3994;-68
2023/07/16 09:47:17;;;;;;;;;;;;;;;23.74;60.59;100857.22;4972408;28;4078;-68
2023/07/16 09:49:43;;;;;;;;;;;;;;;23.75;60.97;100860.84;4981741;28;4151;-68
2023/07/16 09:52:10;;;;;;;;;;;;;;;23.75;60.93;100855.78;4967768;28;4442;-68
2023/07/16 09:54:36;;;;;;;;;;;;;;;23.74;60.99;100865.88;4971502;28;4389;-68
2023/07/16 09:57:03;;;;;;;;;;;;;;;23.75;60.82;100857.94;4971111;28;4226;-68
2023/07/16 09:59:30;;;;;;;;;;;;;;;23.75;61.12;100857.94;4982480;28;4491;-68
2023/07/16 10:01:58;;;;;;;;;;;;;;;23.75;61.22;100855.78;4972401;28;4649;-68
2023/07/16 10:04:24;;;;;;;;;;;;;;;23.75;60.98;100860.84;4960523;28;4207;-68
2023/07/16 10:06:55;;;;;;;;;;;;;;;23.75;61.18;100864.44;4962367;28;4037;-68
2023/07/16 10:09:37;;;;;;;;;;;;;;;23.74;61.06;100857.22;4979130;28;4231;-68
2023/07/16 10:12:10;;;;;;;;;;;;;;;23.75;61.25;100852.88;4978362;28;4086;-68
2023/07/16 10:14:46;;;;;;;;;;;;;;;23.75;61.16;100849.25;4959830;28;4227;-68
2023/07/16 10:17:13;;;;;;;;;;;;;;;23.77;58.25;100855.84;4963878;28;4531;-66
2023/07/16 10:19:49;;;;;;;;;;;;;;;23.86;59.17;100861.91;4954101;28;4128;-67
2023/07/16 10:22:16;;;;;;;;;;;;;;;23.81;59.52;100861.03;4956868;28;4067;-67
2023/07/16 10:24:43;;;;;;;;;;;;;;;23.83;58.80;100861.84;4940306;28;4123;-68
2023/07/16 10:27:12;;;;;;;;;;;;;;;23.83;59.56;100861.84;4964465;28;4136;-70
2023/07/16 10:29:39;;;;;;;;;;;;;;;23.88;60.12;100864.88;4957799;28;4158;-68
2023/07/16 10:32:07;;;;;;;;;;;;;;;23.82;60.20;100857.47;4967965;28;4225;-68
2023/07/16 10:34:34;;;;;;;;;;;;;;;23.79;60.53;100866.75;4964953;28;4165;-68
2023/07/16 10:37:01;;;;;;;;;;;;;;;23.79;60.78;100863.84;4968453;28;4147;-68
2023/07/16 10:39:27;;;;;;;;;;;;;;;23.78;60.62;100868.91;4955652;28;3998;-68
2023/07/16 10:41:54;;;;;;;;;;;;;;;23.78;60.69;100871.06;4954639;28;3991;-68
2023/07/16 10:44:20;;;;;;;;;;;;;;;23.77;61.02;100861.63;4955432;28;4163;-68
2023/07/16 10:46:46;;;;;;;;;;;;;;;23.76;60.92;100865.94;4971058;28;4152;-68
2023/07/16 10:49:13;;;;;;;;;;;;;;;23.75;60.96;100867.34;4970604;28;4033;-69
2023/07/16 10:51:39;;;;;;;;;;;;;;;23.76;61.00;100868.84;4950710;28;3946;-68
2023/07/16 10:54:06;;;;;;;;;;;;;;;23.76;61.01;100860.16;4965438;28;4044;-69
2023/07/16 10:56:34;;;;;;;;;;;;;;;23.76;60.97;100854.38;4962574;28;4083;-69
2023/07/16 10:59:01;;;;;;;;;;;;;;;23.77;60.88;100855.84;4966156;28;4197;-69
2023/07/16 11:01:33;;;;;;;;;;;;;;;23.77;61.00;100860.91;4970394;28;4575;-69
2023/07/16 11:04:06;;;;;;;;;;;;;;;23.75;60.80;100852.88;4985211;28;4019;-68
2023/07/16 11:06:32;;;;;;;;;;;;;;;23.77;61.17;100855.84;4960075;28;4537;-68
2023/07/16 11:09:05;;;;;;;;;;;;;;;23.77;61.12;100855.84;4966593;28;5047;-69
2023/07/16 11:11:32;;;;;;;;;;;;;;;23.76;61.13;100854.38;4963913;28;4184;-68
2023/07/16 11:13:58;;;;;;;;;;;;;;;23.73;61.04;100849.16;4961222;28;4335;-66
2023/07/16 11:16:25;;;;;;;;;;;;;;;23.71;61.11;100861.41;4964834;28;4340;-68
2023/07/16 11:18:51;;;;;;;;;;;;;;;23.75;61.17;100857.94;4953633;28;4494;-69
2023/07/16 11:21:20;;;;;;;;;;;;;;;23.78;60.95;100868.91;4958687;28;4187;-68
2023/07/16 11:23:47;;;;;;;;;;;;;;;23.78;60.90;100871.06;4967429;28;4258;-69
2023/07/16 11:26:14;;;;;;;;;;;;;;;23.78;60.95;100874.69;4955771;28;4462;-69
2023/07/16 11:28:41;;;;;;;;;;;;;;;23.79;61.16;100867.47;4958535;28;4133;-68
2023/07/16 11:31:13;;;;;;;;;;;;;;;23.79;60.93;100864.59;4959344;28;5107;-69
2023/07/16 11:33:41;;;;;;;;;;;;;;;23.81;61.34;100867.56;4965393;28;4154;-69
2023/07/16 11:36:08;;;;;;;;;;;;;;;23.81;61.22;100861.75;4959891;28;4019;-69
2023/07/16 11:38:37;;;;;;;;;;;;;;;23.81;61.20;100861.75;4961943;28;4431;-68
2023/07/16 11:41:04;;;;;;;;;;;;;;;23.80;61.12;100866.09;4962588;28;4578;-68
2023/07/16 11:43:34;;;;;;;;;;;;;;;23.80;61.29;100866.09;4959839;28;4127;-68
2023/07/16 11:46:01;;;;;;;;;;;;;;;23.81;61.24;100872.59;4978691;28;4024;-69
2023/07/16 11:48:27;;;;;;;;;;;;;;;23.81;61.26;100867.56;4956826;28;4285;-69
2023/07/16 11:50:53;;;;;;;;;;;;;;;23.78;61.67;100868.91;4959553;28;4211;-68
2023/07/16 11:53:20;;;;;;;;;;;;;;;23.83;61.63;100853.16;4965721;28;4482;-68
2023/07/16 11:55:46;;;;;;;;;;;;;;;23.81;61.57;100882.00;4969547;28;4082;-76
2023/07/16 11:58:13;;;;;;;;;;;;;;;23.99;54.37;100870.28;4969980;28;4122;-67
2023/07/16 12:00:39;;;;;;;;;;;;;;;24.15;54.00;100864.28;4970031;28;4252;-66
2023/07/16 12:03:05;;;;;;;;;;;;;;;24.09;55.64;100861.19;4969566;28;4412;-65
2023/07/16 12:05:32;;;;;;;;;;;;;;;24.01;55.55;100867.47;4968324;28;4136;-66
2023/07/16 12:08:17;;;;;;;;;;;;;;;24.00;54.72;100865.25;4970663;28;4123;-66
2023/07/16 12:10:43;;;;;;;;;;;;;;;24.04;52.76;100871.16;4960411;28;4059;-66
2023/07/16 12:13:10;;;;;;;;;;;;;;;24.01;54.81;100879.03;4954788;28;4140;-66
2023/07/16 12:15:36;;;;;;;;;;;;;;;24.01;54.21;100860.94;4965271;28;4308;-65
2023/07/16 12:18:03;;;;;;;;;;;;;;;23.96;52.21;100877.44;4972702;28;4433;-66
2023/07/16 12:20:29;;;;;;;;;;;;;;;23.99;52.32;100875.34;4963835;28;4066;-65
2023/07/16 12:22:56;;;;;;;;;;;;;;;24.12;49.14;100871.41;4960774;28;4073;-66
2023/07/16 12:25:22;;;;;;;;;;;;;;;24.13;48.55;100872.16;4960649;28;4562;-66
2023/07/16 12:27:48;;;;;;;;;;;;;;;24.11;49.35;100878.59;4962222;28;3979;-66
2023/07/16 12:30:18;;;;;;;;;;;;;;;24.07;50.36;100878.47;4959715;28;4985;-65
2023/07/16 12:32:44;;;;;;;;;;;;;;;24.06;50.10;100879.91;4968913;28;4346;-66
2023/07/16 12:35:11;;;;;;;;;;;;;;;24.00;51.42;100873.91;4969274;28;4229;-65
2023/07/16 12:37:37;;;;;;;;;;;;;;;24.20;47.92;100876.72;4964557;28;4168;-66
2023/07/16 12:40:06;;;;;;;;;;;;;;;24.19;48.72;100875.97;4958145;28;4152;-66
2023/07/16 12:42:33;;;;;;;;;;;;;;;24.40;45.62;100877.31;4950586;28;4175;-65
2023/07/16 12:45:00;;;;;;;;;;;;;;;24.40;45.54;100882.38;4963359;28;4684;-66
2023/07/16 12:47:27;;;;;;;;;;;;;;;24.28;47.00;100882.00;4963497;28;4243;-65